Time;durP1;ratioP1;P1;durP2;ratioP2;P2;SDS_P1;SDS_P2;PMS_P1;PMS_P2;Temp;Humidity;BMP_temperature;BMP_pressure;BME280_temperature;BME280_humidity;BME280_pressure;Samples;Min_cycle;Max_cycle;Signal;HPM_P1;HPM_P2
2023/02/21 07:22:25;;;;;;;55.47;30.37;;;;;;;8.60;100.00;100495.97;5113832;27;20600;-79
2023/02/21 07:24:52;;;;;;;49.37;29.33;;;;;;;8.71;100.00;100516.44;5120694;28;20462;-76
2023/02/21 07:27:19;;;;;;;58.13;29.53;;;;;;;8.71;100.00;100508.44;5116980;27;20481;-80
2023/02/21 07:29:47;;;;;;;54.83;27.33;;;;;;;8.30;100.00;100502.72;5127354;28;20466;-79
2023/02/21 07:32:48;;;;;;;58.27;26.63;;;;;;;8.23;100.00;100509.47;5114948;27;21091;-78
2023/02/21 07:35:15;;;;;;;51.07;24.50;;;;;;;8.01;100.00;100507.63;5106806;27;21112;-79
2023/02/21 07:37:42;;;;;;;48.67;24.70;;;;;;;8.12;100.00;100515.63;5084727;28;20912;-79
2023/02/21 07:40:09;;;;;;;46.00;24.20;;;;;;;8.06;100.00;100511.63;5093441;28;20487;-77
2023/02/21 07:42:36;;;;;;;54.77;24.30;;;;;;;8.09;100.00;100519.38;5090547;28;20552;-78
2023/02/21 07:45:03;;;;;;;50.83;24.37;;;;;;;8.04;100.00;100524.22;5076959;28;20440;-78
2023/02/21 07:47:30;;;;;;;55.57;22.60;;;;;;;8.04;100.00;100523.38;5082761;28;20508;-78
2023/02/21 07:49:58;;;;;;;58.07;25.33;;;;;;;8.06;100.00;100522.28;5084057;28;20475;-75
2023/02/21 07:52:24;;;;;;;52.97;26.80;;;;;;;8.22;100.00;100523.75;5093592;28;20475;-78
2023/02/21 07:54:51;;;;;;;59.03;28.57;;;;;;;8.52;100.00;100517.88;5080861;28;20513;-79
2023/02/21 07:57:18;;;;;;;55.07;27.33;;;;;;;8.44;100.00;100520.31;5079229;28;20483;-81
2023/02/21 07:59:45;;;;;;;58.17;28.57;;;;;;;8.54;100.00;100523.94;5075810;28;20502;-79
2023/02/21 08:02:12;;;;;;;55.87;29.23;;;;;;;8.54;100.00;100526.63;5055910;28;21195;-81
2023/02/21 08:04:39;;;;;;;63.40;31.00;;;;;;;8.65;100.00;100518.59;5070853;28;20479;-80
2023/02/21 08:07:08;;;;;;;62.80;28.87;;;;;;;8.64;100.00;100527.56;5074843;28;20504;-79
2023/02/21 08:09:35;;;;;;;60.80;27.63;;;;;;;8.51;100.00;100524.19;5076929;28;20925;-79
2023/02/21 08:12:02;;;;;;;59.83;30.47;;;;;;;8.54;100.00;100534.59;5080647;28;20852;-79
2023/02/21 08:14:28;;;;;;;59.73;28.87;;;;;;;8.56;100.00;100535.34;5080281;28;20452;-77
2023/02/21 08:16:55;;;;;;;56.37;27.70;;;;;;;8.57;100.00;100533.50;5090139;28;20950;-78
2023/02/21 08:19:22;;;;;;;62.23;29.53;;;;;;;8.61;100.00;100535.81;5088809;28;20485;-69
2023/02/21 08:21:49;;;;;;;57.33;28.33;;;;;;;8.60;100.00;100542.09;5075258;28;20476;-67
2023/02/21 08:24:18;;;;;;;48.50;26.37;;;;;;;8.69;100.00;100534.38;5074442;28;20912;-70
2023/02/21 08:26:45;;;;;;;55.33;26.77;;;;;;;8.55;100.00;100533.63;5090876;28;20984;-69
2023/02/21 08:29:13;;;;;;;54.27;27.97;;;;;;;8.70;100.00;100534.25;5090236;28;20481;-68
2023/02/21 08:31:40;;;;;;;52.83;26.23;;;;;;;8.51;100.00;100534.84;5095454;28;20533;-69
2023/02/21 08:34:08;;;;;;;56.23;29.60;;;;;;;8.65;100.00;100544.41;5077458;28;20856;-69
2023/02/21 08:36:37;;;;;;;58.13;28.70;;;;;;;8.72;100.00;100548.28;5069618;28;20491;-68
2023/02/21 08:39:04;;;;;;;53.57;27.17;;;;;;;8.65;100.00;100555.91;5076225;28;20754;-69
2023/02/21 08:41:37;;;;;;;52.20;26.67;;;;;;;8.57;100.00;100546.84;5075438;28;20480;-69
2023/02/21 08:44:04;;;;;;;48.47;25.80;;;;;;;8.68;100.00;100546.84;5063394;28;20465;-69
2023/02/21 08:46:31;;;;;;;49.50;26.67;;;;;;;8.65;100.00;100547.91;5060615;28;20476;-68
2023/02/21 08:48:58;;;;;;;53.60;26.13;;;;;;;8.71;100.00;100554.59;5083303;28;20436;-68
2023/02/21 08:51:25;;;;;;;45.97;24.30;;;;;;;8.70;100.00;100552.03;5080663;28;20468;-69
2023/02/21 08:53:52;;;;;;;52.60;25.20;;;;;;;8.63;100.00;100546.38;5072531;28;20502;-69
2023/02/21 08:56:19;;;;;;;46.33;24.00;;;;;;;8.49;100.00;100552.78;5062039;28;20484;-68
2023/02/21 08:58:47;;;;;;;49.67;26.00;;;;;;;8.85;100.00;100557.03;5061969;28;20568;-68
2023/02/21 09:01:14;;;;;;;44.50;24.43;;;;;;;8.79;100.00;100548.66;5062196;28;20488;-68
2023/02/21 09:03:41;;;;;;;47.10;24.47;;;;;;;8.79;100.00;100548.66;5063350;28;20440;-68
2023/02/21 09:06:08;;;;;;;45.73;24.10;;;;;;;8.85;100.00;100550.81;5062225;28;20496;-68
2023/02/21 09:08:35;;;;;;;45.03;24.13;;;;;;;8.94;100.00;100549.25;5074322;28;20472;-66
2023/02/21 09:11:03;;;;;;;40.77;22.70;;;;;;;8.88;100.00;100542.59;5062443;28;21021;-67
2023/02/21 09:13:31;;;;;;;40.00;22.27;;;;;;;8.77;100.00;100548.78;5054880;28;20905;-67
2023/02/21 09:16:00;;;;;;;36.17;21.60;;;;;;;8.75;100.00;100544.53;5063753;28;20483;-66
2023/02/21 09:18:27;;;;;;;46.17;23.17;;;;;;;8.89;100.00;100538.09;5069972;28;21238;-67
2023/02/21 09:20:56;;;;;;;41.87;22.93;;;;;;;9.06;100.00;100545.59;5067221;28;20476;-68
2023/02/21 09:23:24;;;;;;;40.97;23.87;;;;;;;9.33;100.00;100539.00;5065740;28;20517;-67
2023/02/21 09:25:51;;;;;;;40.67;23.00;;;;;;;9.30;100.00;100545.41;5065608;28;20496;-67
2023/02/21 09:28:18;;;;;;;43.57;21.43;;;;;;;9.38;100.00;100542.97;5060962;28;20474;-66
2023/02/21 09:30:46;;;;;;;35.10;20.37;;;;;;;9.37;100.00;100543.97;5042578;28;20527;-66
2023/02/21 09:33:15;;;;;;;36.17;20.80;;;;;;;9.18;100.00;100546.41;5063007;28;20449;-67
2023/02/21 09:35:42;;;;;;;36.77;20.00;;;;;;;9.45;100.00;100550.50;5068853;28;20543;-66
2023/02/21 09:38:08;;;;;;;36.87;21.40;;;;;;;9.54;100.00;100539.06;5075617;28;20463;-67
2023/02/21 09:40:39;;;;;;;35.53;19.87;;;;;;;9.46;100.00;100557.50;5082388;28;20551;-67
2023/02/21 09:43:08;;;;;;;35.40;20.47;;;;;;;9.74;100.00;100559.59;5065856;28;20524;-67
2023/02/21 09:45:36;;;;;;;37.33;20.33;;;;;;;9.90;100.00;100553.81;5079984;28;20580;-67
2023/02/21 09:48:07;;;;;;;35.10;20.93;;;;;;;9.66;100.00;100555.88;5064446;28;20442;-67
2023/02/21 09:50:40;;;;;;;36.83;21.10;;;;;;;9.51;100.00;100552.66;5066764;28;20469;-67
2023/02/21 09:53:08;;;;;;;37.70;20.10;;;;;;;9.67;100.00;100553.09;5075846;28;20812;-67
2023/02/21 09:55:36;;;;;;;39.07;23.33;;;;;;;9.52;100.00;100554.34;5075051;28;20510;-66
2023/02/21 09:58:05;;;;;;;37.20;21.40;;;;;;;9.47;100.00;100552.06;5080367;28;20456;-67
2023/02/21 10:00:34;;;;;;;38.57;21.80;;;;;;;9.47;100.00;100551.22;5080131;28;20468;-66
2023/02/21 10:03:14;;;;;;;34.70;20.40;;;;;;;9.48;100.00;100552.88;5071002;28;20489;-65
2023/02/21 10:05:45;;;;;;;37.00;21.13;;;;;;;9.38;100.00;100558.16;5079649;28;20490;-67
2023/02/21 10:08:20;;;;;;;38.67;22.53;;;;;;;9.46;100.00;100553.03;5079939;28;20448;-66
2023/02/21 10:10:48;;;;;;;33.80;19.47;;;;;;;9.40;100.00;100554.38;5078265;28;20476;-67
2023/02/21 10:13:28;;;;;;;40.73;21.40;;;;;;;9.32;100.00;100558.63;5060295;28;20458;-66
2023/02/21 10:15:59;;;;;;;42.93;23.10;;;;;;;9.36;100.00;100558.28;5054875;28;20512;-67
2023/02/21 10:18:31;;;;;;;38.50;21.40;;;;;;;9.39;100.00;100551.81;5045992;28;20515;-66
2023/02/21 10:21:03;;;;;;;40.40;21.43;;;;;;;9.22;100.00;100559.41;5066621;28;20524;-67
2023/02/21 10:23:35;;;;;;;38.20;22.80;;;;;;;9.28;100.00;100563.38;5074907;28;20538;-67
2023/02/21 10:26:06;;;;;;;41.90;24.00;;;;;;;9.53;100.00;100551.56;5071832;28;20496;-65
2023/02/21 10:28:33;;;;;;;43.17;24.23;;;;;;;9.35;100.00;100566.41;5073153;28;20453;-67
2023/02/21 10:31:02;;;;;;;42.73;24.93;;;;;;;9.52;100.00;100560.53;5059812;28;20512;-64
2023/02/21 10:33:28;;;;;;;41.27;22.83;;;;;;;9.48;100.00;100558.22;5078506;28;20488;-66
2023/02/21 10:35:55;;;;;;;51.20;24.97;;;;;;;9.66;100.00;100563.88;5078764;28;20480;-65
2023/02/21 10:38:26;;;;;;;44.00;25.00;;;;;;;9.94;100.00;100555.25;5079868;28;20448;-68
2023/02/21 10:40:56;;;;;;;47.57;24.80;;;;;;;9.69;100.00;100555.63;5063752;28;20489;-68
2023/02/21 10:43:27;;;;;;;45.20;24.17;;;;;;;9.88;100.00;100562.97;5059934;28;20485;-68
2023/02/21 10:45:58;;;;;;;52.17;25.50;;;;;;;10.24;100.00;100561.69;5072956;28;20500;-66
2023/02/21 10:48:28;;;;;;;48.60;27.33;;;;;;;9.83;100.00;100562.50;5077710;28;20504;-66
2023/02/21 10:51:07;;;;;;;46.27;27.70;;;;;;;9.91;100.00;100565.34;5079962;28;20561;-67
2023/02/21 10:53:36;;;;;;;48.07;26.57;;;;;;;9.69;100.00;100561.81;5060932;28;20767;-66
2023/02/21 10:56:20;;;;;;;58.33;28.00;;;;;;;9.45;100.00;100561.16;5060177;28;20531;-67
2023/02/21 10:58:48;;;;;;;49.53;26.53;;;;;;;9.26;100.00;100556.47;5064991;28;20437;-67
2023/02/21 11:01:17;;;;;;;48.97;27.43;;;;;;;9.67;100.00;100549.53;5067320;28;20484;-67
2023/02/21 11:03:45;;;;;;;51.37;27.37;;;;;;;9.77;100.00;100556.69;5077042;28;20517;-68
2023/02/21 11:06:22;;;;;;;50.50;26.70;;;;;;;9.68;100.00;100548.59;5066425;28;20480;-67
2023/02/21 11:08:50;;;;;;;50.43;27.00;;;;;;;10.05;100.00;100545.50;5080651;28;20821;-70
2023/02/21 11:11:31;;;;;;;49.93;26.90;;;;;;;10.18;100.00;100540.81;5080094;28;20467;-70
2023/02/21 11:14:07;;;;;;;54.20;28.47;;;;;;;10.46;100.00;100544.66;5078921;28;20468;-70
2023/02/21 11:16:35;;;;;;;51.23;29.20;;;;;;;10.45;100.00;100545.66;5074422;28;20531;-68
2023/02/21 11:19:05;;;;;;;46.77;25.30;;;;;;;10.46;100.00;100549.16;5080848;28;20443;-68
2023/02/21 11:21:32;;;;;;;42.33;24.60;;;;;;;10.28;100.00;100540.88;5078799;28;20464;-68
2023/02/21 11:24:02;;;;;;;48.73;28.00;;;;;;;10.01;100.00;100547.56;5079796;28;20459;-68
2023/02/21 11:26:30;;;;;;;48.27;25.77;;;;;;;9.90;100.00;100547.66;5065416;28;20543;-67
2023/02/21 11:29:07;;;;;;;48.17;24.67;;;;;;;9.95;100.00;100551.63;5059303;28;20444;-68
2023/02/21 11:31:34;;;;;;;45.00;25.30;;;;;;;9.97;100.00;100541.66;5074729;28;20537;-66
2023/02/21 11:34:02;;;;;;;47.00;27.20;;;;;;;9.96;100.00;100541.78;5066822;28;20461;-68
2023/02/21 11:36:30;;;;;;;50.97;27.30;;;;;;;10.01;100.00;100542.22;5056999;28;20477;-67
2023/02/21 11:39:06;;;;;;;51.97;27.67;;;;;;;10.38;100.00;100541.81;5059425;28;20449;-69
2023/02/21 11:41:37;;;;;;;49.83;26.93;;;;;;;10.08;100.00;100540.72;5064941;28;20504;-69
2023/02/21 11:44:24;;;;;;;44.07;24.67;;;;;;;10.08;100.00;100538.06;5058882;28;20461;-68
2023/02/21 11:46:53;;;;;;;50.17;26.20;;;;;;;10.27;100.00;100547.19;5059281;28;20499;-70
2023/02/21 11:49:24;;;;;;;45.27;26.17;;;;;;;9.94;100.00;100533.88;5079371;28;20420;-70
2023/02/21 11:51:54;;;;;;;46.50;25.87;;;;;;;10.07;100.00;100543.53;5065927;28;20480;-70
2023/02/21 11:54:25;;;;;;;54.60;28.37;;;;;;;10.01;100.00;100528.88;5066916;28;20448;-70
2023/02/21 11:56:56;;;;;;;53.40;28.73;;;;;;;9.47;100.00;100536.03;5078796;28;20526;-68
2023/02/21 11:59:30;;;;;;;61.83;28.43;;;;;;;9.60;100.00;100536.72;5078499;28;20457;-66
2023/02/21 12:02:15;;;;;;;57.70;29.37;;;;;;;9.68;100.00;100537.91;5076146;28;20480;-68
2023/02/21 12:05:03;;;;;;;57.90;28.93;;;;;;;10.04;100.00;100535.81;5049898;28;20449;-68
2023/02/21 12:07:35;;;;;;;69.37;32.57;;;;;;;10.03;100.00;100542.94;5057333;28;20481;-67
2023/02/21 12:10:13;;;;;;;59.40;29.40;;;;;;;9.64;100.00;100534.66;5079028;28;20444;-69
2023/02/21 12:12:45;;;;;;;57.67;30.33;;;;;;;9.57;100.00;100530.78;5070299;28;20554;-68
2023/02/21 12:15:20;;;;;;;54.63;29.90;;;;;;;9.69;100.00;100532.44;5078305;28;20440;-69
2023/02/21 12:18:24;;;;;;;56.77;28.87;;;;;;;9.54;100.00;100531.03;5053660;28;20471;-68
2023/02/21 12:21:02;;;;;;;58.83;28.03;;;;;;;9.69;100.00;100523.59;5068206;28;20525;-68
2023/02/21 12:23:36;;;;;;;53.90;28.30;;;;;;;9.64;100.00;100521.31;5082580;28;20471;-68
2023/02/21 12:26:22;;;;;;;52.47;27.07;;;;;;;9.67;100.00;100521.06;5082375;28;20480;-68
2023/02/21 12:28:59;;;;;;;46.93;25.90;;;;;;;9.90;100.00;100515.59;5064610;28;20429;-68
2023/02/21 12:31:37;;;;;;;45.93;26.30;;;;;;;9.98;100.00;100518.44;5062242;28;20492;-67
2023/02/21 12:34:15;;;;;;;46.77;26.30;;;;;;;9.73;100.00;100514.34;5070333;28;20486;-67
2023/02/21 12:36:55;;;;;;;50.60;25.10;;;;;;;9.69;100.00;100511.09;5073464;28;20480;-68
2023/02/21 12:39:31;;;;;;;51.70;28.77;;;;;;;9.80;100.00;100511.00;5081116;28;20483;-69
2023/02/21 12:42:12;;;;;;;54.80;26.80;;;;;;;9.65;100.00;100517.63;5080221;28;20515;-69
2023/02/21 12:44:51;;;;;;;52.93;27.60;;;;;;;9.66;100.00;100521.19;5078315;28;20475;-69
2023/02/21 12:47:22;;;;;;;59.50;29.13;;;;;;;9.80;100.00;100515.50;5082397;28;20483;-68
2023/02/21 12:49:52;;;;;;;55.60;28.20;;;;;;;9.89;100.00;100514.72;5082457;28;20471;-70
2023/02/21 12:52:24;;;;;;;59.90;28.90;;;;;;;9.82;100.00;100502.03;5081807;28;20476;-69
2023/02/21 12:54:57;;;;;;;48.50;26.97;;;;;;;9.72;100.00;100502.81;5081533;28;20440;-69
2023/02/21 12:57:30;;;;;;;59.77;29.00;;;;;;;9.55;100.00;100508.72;5069345;28;21070;-70
2023/02/21 13:00:06;;;;;;;53.50;26.33;;;;;;;9.48;100.00;100508.38;5070200;28;20444;-68
2023/02/21 13:02:40;;;;;;;49.10;26.43;;;;;;;9.64;100.00;100510.63;5078938;28;20574;-69
2023/02/21 13:05:12;;;;;;;52.27;27.90;;;;;;;9.44;100.00;100504.25;5073516;28;20527;-69
2023/02/21 13:07:43;;;;;;;57.07;27.30;;;;;;;9.60;100.00;100514.53;5076560;28;20461;-70
2023/02/21 13:10:15;;;;;;;58.80;30.00;;;;;;;9.52;100.00;100507.16;5080020;28;20825;-69
2023/02/21 13:12:49;;;;;;;57.00;27.60;;;;;;;9.27;100.00;100505.66;5081230;28;20453;-70
2023/02/21 13:15:20;;;;;;;56.73;27.27;;;;;;;9.23;100.00;100507.75;5081376;28;20456;-70
2023/02/21 13:17:52;;;;;;;47.50;24.70;;;;;;;9.25;100.00;100504.94;5068295;28;20452;-68
2023/02/21 13:20:21;;;;;;;50.13;25.90;;;;;;;9.35;100.00;100497.88;5047829;28;20484;-68
2023/02/21 13:26:21;;;;;;;47.13;23.97;;;;;;;9.19;100.00;100495.63;5057579;28;20479;-70
2023/02/21 13:28:52;;;;;;;47.40;24.70;;;;;;;9.48;100.00;100491.50;5077661;28;20467;-69
2023/02/21 13:31:20;;;;;;;48.30;24.80;;;;;;;9.32;100.00;100490.13;5060751;28;20500;-70
2023/02/21 13:33:51;;;;;;;45.93;25.87;;;;;;;9.53;100.00;100482.16;5061504;28;20450;-69
2023/02/21 13:36:23;;;;;;;56.30;26.10;;;;;;;9.49;100.00;100477.19;5068196;28;20502;-70
2023/02/21 13:38:58;;;;;;;50.50;25.17;;;;;;;9.65;100.00;100472.25;5080895;28;20484;-70
2023/02/21 13:41:27;;;;;;;46.33;23.40;;;;;;;9.55;100.00;100487.38;5059621;28;20535;-68
2023/02/21 13:43:56;;;;;;;53.03;25.83;;;;;;;9.51;100.00;100483.25;5061359;28;21013;-68
2023/02/21 13:46:25;;;;;;;51.67;25.47;;;;;;;9.70;100.00;100475.38;5064807;28;20532;-69
2023/02/21 13:49:24;;;;;;;49.23;25.03;;;;;;;9.58;100.00;100481.75;5081591;28;20479;-70
2023/02/21 13:51:51;;;;;;;50.90;26.23;;;;;;;9.38;100.00;100476.28;5041679;28;20752;-70
2023/02/21 13:54:22;;;;;;;57.90;27.90;;;;;;;9.09;100.00;100480.50;5054699;28;20457;-70
2023/02/21 13:56:49;;;;;;;49.93;25.03;;;;;;;9.02;100.00;100480.97;5064656;28;20527;-69
2023/02/21 13:59:33;;;;;;;53.03;26.20;;;;;;;9.13;100.00;100473.91;5060419;28;20437;-70
2023/02/21 14:02:20;;;;;;;45.17;23.30;;;;;;;9.09;100.00;100465.31;5061010;28;20562;-70
2023/02/21 14:05:04;;;;;;;51.67;23.73;;;;;;;9.22;100.00;100470.53;5070276;28;20542;-70
2023/02/21 14:07:48;;;;;;;51.63;26.23;;;;;;;9.03;100.00;100463.19;5060795;28;20473;-70
2023/02/21 14:10:23;;;;;;;50.67;24.60;;;;;;;9.21;100.00;100471.47;5060558;28;20437;-70
2023/02/21 14:12:55;;;;;;;54.20;25.20;;;;;;;9.24;100.00;100468.56;5061929;28;20445;-70
2023/02/21 14:15:23;;;;;;;53.07;26.37;;;;;;;9.07;100.00;100471.78;5062447;28;20452;-69
2023/02/21 14:17:51;;;;;;;49.60;24.70;;;;;;;9.14;100.00;100463.13;5059185;28;20454;-70
2023/02/21 14:20:20;;;;;;;45.93;25.00;;;;;;;9.23;100.00;100474.88;5072274;28;20425;-70
2023/02/21 14:22:50;;;;;;;48.00;23.67;;;;;;;9.13;100.00;100463.25;5069245;28;20495;-69
2023/02/21 14:25:18;;;;;;;49.13;24.73;;;;;;;9.02;100.00;100459.66;5062920;28;20472;-68
2023/02/21 14:27:45;;;;;;;54.33;25.97;;;;;;;9.00;100.00;100460.75;5051760;28;20441;-68
2023/02/21 14:30:28;;;;;;;44.93;23.40;;;;;;;9.06;100.00;100457.56;5067943;28;20502;-68
2023/02/21 14:33:00;;;;;;;45.87;23.23;;;;;;;9.03;100.00;100456.03;5064436;28;20876;-67
2023/02/21 14:35:32;;;;;;;49.07;23.23;;;;;;;8.94;100.00;100455.91;5078775;28;20489;-67
2023/02/21 14:38:02;;;;;;;42.13;23.67;;;;;;;8.99;100.00;100459.91;5080627;28;20509;-67
2023/02/21 14:40:41;;;;;;;42.83;22.90;;;;;;;9.10;100.00;100461.69;5063667;28;20473;-69
2023/02/21 14:43:21;;;;;;;42.17;22.77;;;;;;;9.11;100.00;100458.03;5062431;28;20484;-67
2023/02/21 14:46:21;;;;;;;43.37;23.40;;;;;;;9.30;100.00;100465.38;5068808;28;20479;-67
2023/02/21 14:49:20;;;;;;;44.50;23.57;;;;;;;9.28;100.00;100456.66;5065333;28;20479;-69
2023/02/21 14:52:02;;;;;;;43.50;23.70;;;;;;;9.20;100.00;100459.09;5071716;28;20486;-70
2023/02/21 14:55:11;;;;;;;42.80;23.87;;;;;;;9.10;100.00;100463.53;5057465;28;20476;-69
2023/02/21 14:58:33;;;;;;;43.73;24.07;;;;;;;9.28;100.00;100456.66;5018655;28;21044;-69
2023/02/21 15:01:09;;;;;;;47.30;24.47;;;;;;;9.31;100.00;100463.56;4998578;28;20527;-68
2023/02/21 15:03:42;;;;;;;46.80;22.77;;;;;;;9.24;100.00;100456.06;4997921;28;20491;-69
2023/02/21 15:06:17;;;;;;;45.97;25.10;;;;;;;9.39;100.00;100461.97;4997599;28;20472;-69
2023/02/21 15:08:47;;;;;;;40.73;22.40;;;;;;;9.27;100.00;100464.78;4996508;28;20482;-69
2023/02/21 15:11:20;;;;;;;45.03;25.13;;;;;;;9.41;100.00;100457.34;5000724;28;20529;-67
2023/02/21 15:13:48;;;;;;;44.17;23.60;;;;;;;9.20;100.00;100453.78;4998557;28;20463;-69
2023/02/21 15:16:18;;;;;;;39.17;22.87;;;;;;;9.31;100.00;100450.25;4996970;28;20507;-67
2023/02/21 15:18:58;;;;;;;41.50;23.90;;;;;;;9.28;100.00;100459.31;4998218;28;20478;-69
2023/02/21 15:21:25;;;;;;;45.63;25.20;;;;;;;9.10;100.00;100448.38;4997281;28;20485;-69
2023/02/21 15:24:01;;;;;;;43.37;22.87;;;;;;;9.13;100.00;100449.91;4997206;28;20484;-69
2023/02/21 15:26:30;;;;;;;42.30;24.37;;;;;;;9.14;100.00;100444.47;4997407;28;20467;-69
2023/02/21 15:29:07;;;;;;;43.37;23.50;;;;;;;9.13;100.00;100453.47;4997587;28;20452;-69
2023/02/21 15:31:39;;;;;;;44.43;23.73;;;;;;;9.26;100.00;100453.28;5020209;28;20558;-69
2023/02/21 15:34:06;;;;;;;47.70;23.63;;;;;;;8.96;100.00;100465.50;5063229;28;20448;-68
2023/02/21 15:36:33;;;;;;;41.60;23.13;;;;;;;8.99;100.00;100459.06;5078389;28;20499;-68
2023/02/21 15:39:04;;;;;;;40.20;21.70;;;;;;;9.03;100.00;100457.84;5079202;28;20453;-68
2023/02/21 15:41:33;;;;;;;41.80;23.23;;;;;;;9.00;100.00;100461.59;5079095;28;20515;-68
2023/02/21 15:44:03;;;;;;;45.43;23.47;;;;;;;9.01;100.00;100459.78;5051321;28;20500;-68
2023/02/21 15:46:32;;;;;;;42.17;23.03;;;;;;;9.28;100.00;100454.00;5058341;28;20479;-67
2023/02/21 15:49:03;;;;;;;39.93;22.60;;;;;;;9.28;100.00;100461.16;5072089;28;20456;-69
2023/02/21 15:51:30;;;;;;;43.43;22.07;;;;;;;9.14;100.00;100459.63;5074703;28;20477;-69
2023/02/21 15:54:21;;;;;;;47.73;24.50;;;;;;;9.23;100.00;100466.84;5059889;28;20463;-70
2023/02/21 15:56:48;;;;;;;40.90;24.17;;;;;;;9.04;100.00;100456.84;5078182;28;20506;-70
2023/02/21 15:59:19;;;;;;;39.47;22.77;;;;;;;9.23;100.00;100457.06;5064169;28;20438;-69
2023/02/21 16:02:07;;;;;;;49.70;25.40;;;;;;;9.03;100.00;100457.84;5066039;28;20503;-69
2023/02/21 16:04:37;;;;;;;44.37;23.63;;;;;;;8.97;100.00;100456.50;5075239;28;20520;-70
2023/02/21 16:07:06;;;;;;;48.43;24.70;;;;;;;9.09;100.00;100448.50;5064919;28;21071;-73
2023/02/21 16:09:34;;;;;;;45.10;23.80;;;;;;;8.98;100.00;100452.88;5064029;28;20497;-74
2023/02/21 16:12:05;;;;;;;48.17;26.07;;;;;;;8.99;100.00;100451.91;5063319;28;20519;-74
2023/02/21 16:14:38;;;;;;;41.80;24.07;;;;;;;8.91;100.00;100454.34;5063595;28;20886;-74
2023/02/21 16:17:09;;;;;;;49.23;24.03;;;;;;;9.07;100.00;100453.94;5064252;28;20551;-73
2023/02/21 16:19:37;;;;;;;45.30;24.27;;;;;;;9.09;100.00;100457.31;5064796;28;20507;-74
2023/02/21 16:22:26;;;;;;;43.70;24.47;;;;;;;9.07;100.00;100455.78;5063240;28;20512;-76
2023/02/21 16:25:06;;;;;;;46.43;23.47;;;;;;;8.86;100.00;100454.72;5059218;28;20477;-74
2023/02/21 16:27:33;;;;;;;45.97;24.30;;;;;;;8.95;100.00;100460.28;5062012;28;20541;-74
2023/02/21 16:29:59;;;;;;;43.10;24.90;;;;;;;8.99;100.00;100459.06;5063537;28;20441;-73
2023/02/21 16:32:26;;;;;;;43.53;23.23;;;;;;;9.09;100.00;100456.50;5061628;28;20511;-73
2023/02/21 16:34:54;;;;;;;43.67;24.80;;;;;;;8.98;100.00;100455.53;5063108;28;20475;-73
2023/02/21 16:37:22;;;;;;;42.33;23.83;;;;;;;9.11;100.00;100452.72;5061972;28;20522;-73
2023/02/21 16:39:49;;;;;;;41.90;23.70;;;;;;;9.01;100.00;100451.78;5062491;28;20491;-73
2023/02/21 16:42:16;;;;;;;45.30;25.57;;;;;;;9.01;100.00;100452.63;5062544;28;20473;-73
2023/02/21 16:44:43;;;;;;;45.20;24.37;;;;;;;8.90;100.00;100454.47;5062762;28;20492;-74
2023/02/21 16:47:13;;;;;;;38.83;22.20;;;;;;;8.97;100.00;100459.16;5061999;28;20480;-74
2023/02/21 16:49:40;;;;;;;41.40;22.63;;;;;;;9.00;100.00;100453.59;5063747;28;20477;-74
2023/02/21 16:52:10;;;;;;;41.33;22.50;;;;;;;8.83;100.00;100460.28;5061490;28;20499;-73
2023/02/21 16:54:36;;;;;;;42.27;22.57;;;;;;;8.92;100.00;100456.03;5060638;28;21031;-73
2023/02/21 16:57:03;;;;;;;45.90;23.53;;;;;;;8.85;100.00;100460.16;5061662;28;20508;-73
2023/02/21 16:59:30;;;;;;;41.20;22.73;;;;;;;8.88;100.00;100457.25;5062664;28;20471;-73
2023/02/21 17:01:56;;;;;;;40.20;23.00;;;;;;;8.72;100.00;100459.50;5061522;28;20530;-68
2023/02/21 17:04:25;;;;;;;39.00;22.60;;;;;;;8.79;100.00;100461.53;5058528;28;20481;-81
2023/02/21 17:06:54;;;;;;;40.60;22.67;;;;;;;8.78;100.00;100466.97;5058390;28;20476;-77
2023/02/21 17:09:25;;;;;;;42.20;23.60;;;;;;;8.78;100.00;100458.97;5061255;28;20460;-77
2023/02/21 17:11:52;;;;;;;37.40;22.90;;;;;;;8.64;100.00;100463.59;5070720;28;21285;-77
2023/02/21 17:14:19;;;;;;;47.03;24.40;;;;;;;8.61;100.00;100460.31;5068616;28;20840;-78
2023/02/21 17:16:45;;;;;;;43.60;25.03;;;;;;;8.66;100.00;100455.47;5054242;28;20571;-78
2023/02/21 17:19:14;;;;;;;45.13;25.60;;;;;;;8.77;100.00;100467.97;5065251;28;20449;-79
2023/02/21 17:21:40;;;;;;;42.00;23.97;;;;;;;8.78;100.00;100467.81;5073338;28;20476;-80
2023/02/21 17:24:07;;;;;;;45.53;25.60;;;;;;;8.85;100.00;100468.16;5070745;28;20491;-78
2023/02/21 17:26:36;;;;;;;53.43;25.90;;;;;;;8.73;100.00;100471.81;5080903;28;20481;-78
2023/02/21 17:29:03;;;;;;;46.20;24.90;;;;;;;8.90;100.00;100473.97;5070097;28;20510;-78
2023/02/21 17:31:31;;;;;;;51.47;28.27;;;;;;;8.88;100.00;100475.94;5070148;28;20914;-79
2023/02/21 17:33:57;;;;;;;51.03;27.17;;;;;;;8.84;100.00;100475.34;5072465;28;20465;-78
2023/02/21 17:36:26;;;;;;;47.70;26.60;;;;;;;8.84;100.00;100475.34;5069154;28;20484;-79
2023/02/21 17:38:54;;;;;;;49.87;25.90;;;;;;;8.88;100.00;100475.09;5069176;28;20460;-80
2023/02/21 17:41:21;;;;;;;46.80;26.93;;;;;;;8.95;100.00;100478.94;5068400;28;20488;-79
2023/02/21 17:43:50;;;;;;;44.37;25.30;;;;;;;8.81;100.00;100474.72;5067882;28;20497;-79
2023/02/21 17:46:19;;;;;;;45.23;25.87;;;;;;;8.84;100.00;100472.66;5066656;28;20483;-79
2023/02/21 17:48:46;;;;;;;48.60;26.97;;;;;;;8.86;100.00;100467.22;5065715;28;20452;-78
2023/02/21 17:51:19;;;;;;;48.07;26.10;;;;;;;8.77;100.00;100467.97;5057752;28;20483;-78
2023/02/21 17:53:46;;;;;;;52.73;28.80;;;;;;;8.83;100.00;100467.44;5059889;28;20453;-79
2023/02/21 17:56:17;;;;;;;50.53;26.87;;;;;;;8.95;100.00;100469.13;5062248;28;20480;-78
2023/02/21 17:58:44;;;;;;;52.07;28.40;;;;;;;8.96;100.00;100468.16;5059543;28;20451;-78
2023/02/21 18:01:17;;;;;;;49.40;27.07;;;;;;;8.97;100.00;100480.50;5057734;28;20848;-79
2023/02/21 18:03:46;;;;;;;54.20;27.80;;;;;;;8.89;100.00;100474.09;5065334;28;20481;-72
2023/02/21 18:06:14;;;;;;;51.60;29.07;;;;;;;8.92;100.00;100473.84;5062917;28;20572;-69
2023/02/21 18:08:43;;;;;;;47.97;27.47;;;;;;;8.84;100.00;100480.66;5060099;28;20488;-71
2023/02/21 18:11:12;;;;;;;53.23;28.93;;;;;;;8.83;100.00;100481.63;5063382;28;20477;-71
2023/02/21 18:13:40;;;;;;;48.37;27.60;;;;;;;8.85;100.00;100478.84;5061179;28;20484;-72
2023/02/21 18:16:09;;;;;;;47.60;27.40;;;;;;;8.88;100.00;100483.09;5059391;28;20483;-78
2023/02/21 18:18:37;;;;;;;53.87;28.30;;;;;;;8.82;100.00;100479.94;5062019;28;20444;-78
2023/02/21 18:21:04;;;;;;;52.67;28.93;;;;;;;8.75;100.00;100472.53;5057146;28;20481;-78
2023/02/21 18:23:33;;;;;;;52.97;29.10;;;;;;;8.73;100.00;100472.69;5076244;28;20452;-79
2023/02/21 18:26:00;;;;;;;56.43;30.33;;;;;;;8.77;100.00;100475.97;5074142;28;20529;-79
2023/02/21 18:28:27;;;;;;;48.27;28.70;;;;;;;8.81;100.00;100472.06;5067441;28;20520;-78
2023/02/21 18:30:57;;;;;;;56.33;30.13;;;;;;;8.82;100.00;100473.78;5069496;28;20492;-78
2023/02/21 18:33:26;;;;;;;54.10;28.23;;;;;;;8.82;100.00;100481.78;5063940;28;20461;-79
2023/02/21 18:35:55;;;;;;;53.90;29.57;;;;;;;8.79;100.00;100474.84;5058996;28;21133;-77
2023/02/21 18:38:23;;;;;;;52.07;27.10;;;;;;;8.84;100.00;100474.50;5057551;28;20461;-79
2023/02/21 18:40:51;;;;;;;63.90;31.40;;;;;;;8.84;100.00;100472.66;5063964;28;20503;-75
2023/02/21 18:43:21;;;;;;;61.83;31.53;;;;;;;8.86;100.00;100472.53;5065115;28;20555;-77
2023/02/21 18:45:51;;;;;;;61.60;30.70;;;;;;;8.85;100.00;100471.72;5062357;28;20726;-77
2023/02/21 18:48:19;;;;;;;58.83;30.37;;;;;;;8.88;100.00;100469.75;5067653;28;20926;-76
2023/02/21 18:50:47;;;;;;;58.90;32.77;;;;;;;8.82;100.00;100471.09;5068725;28;20493;-77
2023/02/21 18:53:17;;;;;;;60.20;30.47;;;;;;;8.81;100.00;100477.41;5066806;28;20483;-78